sensor_id;sensor_type;location;lat;lon;timestamp;P1;durP1;ratioP1;P2;durP2;ratioP2
30247;SDS011;17063;50.892;4.702;2023-07-20T00:00:18;5.27;;;1.90;;
30247;SDS011;17063;50.892;4.702;2023-07-20T00:02:45;3.77;;;1.87;;
30247;SDS011;17063;50.892;4.702;2023-07-20T00:05:12;3.67;;;2.00;;
30247;SDS011;17063;50.892;4.702;2023-07-20T00:07:39;2.40;;;1.80;;
30247;SDS011;17063;50.892;4.702;2023-07-20T00:10:06;4.90;;;1.90;;
30247;SDS011;17063;50.892;4.702;2023-07-20T00:12:33;6.40;;;2.03;;
30247;SDS011;17063;50.892;4.702;2023-07-20T00:15:00;3.77;;;1.97;;
30247;SDS011;17063;50.892;4.702;2023-07-20T00:17:27;5.53;;;2.00;;
30247;SDS011;17063;50.892;4.702;2023-07-20T00:19:54;4.27;;;2.20;;
30247;SDS011;17063;50.892;4.702;2023-07-20T00:22:20;4.80;;;2.03;;
30247;SDS011;17063;50.892;4.702;2023-07-20T00:24:47;9.47;;;2.07;;
30247;SDS011;17063;50.892;4.702;2023-07-20T00:27:15;5.13;;;2.20;;
30247;SDS011;17063;50.892;4.702;2023-07-20T00:29:42;3.33;;;1.80;;
30247;SDS011;17063;50.892;4.702;2023-07-20T00:32:09;6.60;;;2.13;;
30247;SDS011;17063;50.892;4.702;2023-07-20T00:34:36;4.43;;;1.90;;
30247;SDS011;17063;50.892;4.702;2023-07-20T00:37:03;3.93;;;1.83;;
30247;SDS011;17063;50.892;4.702;2023-07-20T00:39:30;3.00;;;1.70;;
30247;SDS011;17063;50.892;4.702;2023-07-20T00:41:58;3.17;;;1.93;;
30247;SDS011;17063;50.892;4.702;2023-07-20T00:44:24;3.77;;;2.00;;
30247;SDS011;17063;50.892;4.702;2023-07-20T00:46:52;4.93;;;1.90;;
30247;SDS011;17063;50.892;4.702;2023-07-20T00:49:19;5.03;;;2.10;;
30247;SDS011;17063;50.892;4.702;2023-07-20T00:51:48;6.83;;;2.20;;
30247;SDS011;17063;50.892;4.702;2023-07-20T00:54:16;3.80;;;2.30;;
30247;SDS011;17063;50.892;4.702;2023-07-20T00:56:43;9.47;;;2.43;;
30247;SDS011;17063;50.892;4.702;2023-07-20T00:59:12;3.30;;;1.90;;
30247;SDS011;17063;50.892;4.702;2023-07-20T01:01:39;4.70;;;2.37;;
30247;SDS011;17063;50.892;4.702;2023-07-20T01:04:06;5.50;;;1.90;;
30247;SDS011;17063;50.892;4.702;2023-07-20T01:06:41;3.60;;;2.23;;
30247;SDS011;17063;50.892;4.702;2023-07-20T01:09:13;5.17;;;2.10;;
30247;SDS011;17063;50.892;4.702;2023-07-20T01:14:14;5.37;;;2.00;;
30247;SDS011;17063;50.892;4.702;2023-07-20T01:16:42;4.80;;;2.10;;
30247;SDS011;17063;50.892;4.702;2023-07-20T01:19:09;5.27;;;2.30;;
30247;SDS011;17063;50.892;4.702;2023-07-20T01:21:40;7.90;;;2.60;;
30247;SDS011;17063;50.892;4.702;2023-07-20T01:24:20;7.27;;;2.53;;
30247;SDS011;17063;50.892;4.702;2023-07-20T01:27:25;6.50;;;2.50;;
30247;SDS011;17063;50.892;4.702;2023-07-20T01:32:45;4.00;;;2.10;;
30247;SDS011;17063;50.892;4.702;2023-07-20T01:35:13;8.87;;;2.50;;
30247;SDS011;17063;50.892;4.702;2023-07-20T01:37:41;4.80;;;2.67;;
30247;SDS011;17063;50.892;4.702;2023-07-20T01:40:10;7.70;;;2.33;;
30247;SDS011;17063;50.892;4.702;2023-07-20T01:42:37;4.90;;;2.23;;
30247;SDS011;17063;50.892;4.702;2023-07-20T01:45:05;4.17;;;2.40;;
30247;SDS011;17063;50.892;4.702;2023-07-20T01:47:32;4.43;;;2.33;;
30247;SDS011;17063;50.892;4.702;2023-07-20T01:49:58;5.50;;;2.57;;
30247;SDS011;17063;50.892;4.702;2023-07-20T01:52:26;7.47;;;2.53;;
30247;SDS011;17063;50.892;4.702;2023-07-20T01:54:52;7.30;;;2.50;;
30247;SDS011;17063;50.892;4.702;2023-07-20T01:57:19;5.97;;;2.70;;
30247;SDS011;17063;50.892;4.702;2023-07-20T01:59:47;10.37;;;3.53;;
30247;SDS011;17063;50.892;4.702;2023-07-20T02:02:14;6.80;;;2.93;;
30247;SDS011;17063;50.892;4.702;2023-07-20T02:04:41;5.87;;;2.73;;
30247;SDS011;17063;50.892;4.702;2023-07-20T02:07:08;8.23;;;3.30;;
30247;SDS011;17063;50.892;4.702;2023-07-20T02:09:35;6.50;;;3.20;;
30247;SDS011;17063;50.892;4.702;2023-07-20T02:12:01;5.67;;;3.03;;
30247;SDS011;17063;50.892;4.702;2023-07-20T02:14:29;6.33;;;3.00;;
30247;SDS011;17063;50.892;4.702;2023-07-20T02:16:55;10.63;;;3.10;;
30247;SDS011;17063;50.892;4.702;2023-07-20T02:19:28;10.80;;;3.87;;
30247;SDS011;17063;50.892;4.702;2023-07-20T02:21:56;6.60;;;3.30;;
30247;SDS011;17063;50.892;4.702;2023-07-20T02:24:23;4.47;;;3.13;;
30247;SDS011;17063;50.892;4.702;2023-07-20T02:26:51;9.43;;;3.70;;
30247;SDS011;17063;50.892;4.702;2023-07-20T02:29:18;10.73;;;3.87;;
30247;SDS011;17063;50.892;4.702;2023-07-20T02:31:45;7.30;;;3.20;;
30247;SDS011;17063;50.892;4.702;2023-07-20T02:34:12;14.60;;;4.03;;
30247;SDS011;17063;50.892;4.702;2023-07-20T02:36:39;5.97;;;3.40;;
30247;SDS011;17063;50.892;4.702;2023-07-20T02:39:09;7.53;;;3.40;;
30247;SDS011;17063;50.892;4.702;2023-07-20T02:41:37;8.37;;;3.97;;
30247;SDS011;17063;50.892;4.702;2023-07-20T02:44:04;11.60;;;3.83;;
30247;SDS011;17063;50.892;4.702;2023-07-20T02:46:30;9.17;;;3.97;;
30247;SDS011;17063;50.892;4.702;2023-07-20T02:48:57;7.87;;;4.03;;
30247;SDS011;17063;50.892;4.702;2023-07-20T02:51:24;5.97;;;3.87;;
30247;SDS011;17063;50.892;4.702;2023-07-20T02:53:51;8.83;;;4.10;;
30247;SDS011;17063;50.892;4.702;2023-07-20T02:56:18;9.20;;;4.00;;
30247;SDS011;17063;50.892;4.702;2023-07-20T02:58:45;7.57;;;4.00;;
30247;SDS011;17063;50.892;4.702;2023-07-20T03:01:15;11.43;;;4.43;;
30247;SDS011;17063;50.892;4.702;2023-07-20T03:03:42;9.30;;;4.33;;
30247;SDS011;17063;50.892;4.702;2023-07-20T03:06:15;12.53;;;4.37;;
30247;SDS011;17063;50.892;4.702;2023-07-20T03:08:43;14.53;;;5.27;;
30247;SDS011;17063;50.892;4.702;2023-07-20T03:11:15;13.00;;;4.67;;
30247;SDS011;17063;50.892;4.702;2023-07-20T03:13:42;6.50;;;3.93;;
30247;SDS011;17063;50.892;4.702;2023-07-20T03:16:10;8.13;;;4.03;;
30247;SDS011;17063;50.892;4.702;2023-07-20T03:18:38;13.57;;;4.77;;
30247;SDS011;17063;50.892;4.702;2023-07-20T03:21:07;14.97;;;4.80;;
30247;SDS011;17063;50.892;4.702;2023-07-20T03:23:35;10.67;;;4.60;;
30247;SDS011;17063;50.892;4.702;2023-07-20T03:26:02;10.90;;;4.27;;
30247;SDS011;17063;50.892;4.702;2023-07-20T03:28:30;9.87;;;4.87;;
30247;SDS011;17063;50.892;4.702;2023-07-20T03:30:57;13.13;;;4.60;;
30247;SDS011;17063;50.892;4.702;2023-07-20T03:33:26;12.90;;;5.13;;
30247;SDS011;17063;50.892;4.702;2023-07-20T03:35:56;9.83;;;4.93;;
30247;SDS011;17063;50.892;4.702;2023-07-20T03:38:23;9.13;;;4.67;;
30247;SDS011;17063;50.892;4.702;2023-07-20T03:40:51;14.17;;;5.47;;
30247;SDS011;17063;50.892;4.702;2023-07-20T03:43:22;9.67;;;5.23;;
30247;SDS011;17063;50.892;4.702;2023-07-20T03:45:50;13.43;;;5.77;;
30247;SDS011;17063;50.892;4.702;2023-07-20T03:48:18;10.47;;;5.20;;
30247;SDS011;17063;50.892;4.702;2023-07-20T03:50:46;11.13;;;5.23;;
30247;SDS011;17063;50.892;4.702;2023-07-20T03:53:14;13.10;;;5.53;;
30247;SDS011;17063;50.892;4.702;2023-07-20T03:55:44;10.73;;;5.37;;
30247;SDS011;17063;50.892;4.702;2023-07-20T03:58:13;16.33;;;5.93;;
30247;SDS011;17063;50.892;4.702;2023-07-20T04:00:43;11.63;;;5.63;;
30247;SDS011;17063;50.892;4.702;2023-07-20T04:03:11;10.13;;;5.53;;
30247;SDS011;17063;50.892;4.702;2023-07-20T04:05:39;13.20;;;6.17;;
30247;SDS011;17063;50.892;4.702;2023-07-20T04:08:05;12.87;;;5.93;;
30247;SDS011;17063;50.892;4.702;2023-07-20T04:10:32;8.60;;;5.50;;
30247;SDS011;17063;50.892;4.702;2023-07-20T04:13:00;9.20;;;5.77;;
30247;SDS011;17063;50.892;4.702;2023-07-20T04:15:27;12.20;;;5.73;;
30247;SDS011;17063;50.892;4.702;2023-07-20T04:17:54;11.40;;;5.47;;
30247;SDS011;17063;50.892;4.702;2023-07-20T04:20:23;15.73;;;5.47;;
30247;SDS011;17063;50.892;4.702;2023-07-20T04:22:50;10.37;;;6.03;;
30247;SDS011;17063;50.892;4.702;2023-07-20T04:25:18;13.97;;;6.23;;
30247;SDS011;17063;50.892;4.702;2023-07-20T04:27:45;17.17;;;6.30;;
30247;SDS011;17063;50.892;4.702;2023-07-20T04:30:12;13.90;;;6.53;;
30247;SDS011;17063;50.892;4.702;2023-07-20T04:32:40;13.87;;;5.77;;
30247;SDS011;17063;50.892;4.702;2023-07-20T04:35:11;11.97;;;6.40;;
30247;SDS011;17063;50.892;4.702;2023-07-20T04:37:43;11.33;;;6.20;;
30247;SDS011;17063;50.892;4.702;2023-07-20T04:40:16;11.80;;;5.80;;
30247;SDS011;17063;50.892;4.702;2023-07-20T04:42:43;11.20;;;5.87;;
30247;SDS011;17063;50.892;4.702;2023-07-20T04:45:10;15.07;;;5.83;;
30247;SDS011;17063;50.892;4.702;2023-07-20T04:47:38;10.17;;;5.87;;
30247;SDS011;17063;50.892;4.702;2023-07-20T04:50:05;11.47;;;5.97;;
30247;SDS011;17063;50.892;4.702;2023-07-20T04:52:32;13.20;;;6.57;;
30247;SDS011;17063;50.892;4.702;2023-07-20T04:55:11;15.97;;;6.53;;
30247;SDS011;17063;50.892;4.702;2023-07-20T04:57:37;20.00;;;6.83;;
30247;SDS011;17063;50.892;4.702;2023-07-20T05:00:05;12.60;;;6.87;;
30247;SDS011;17063;50.892;4.702;2023-07-20T05:02:33;14.33;;;5.77;;
30247;SDS011;17063;50.892;4.702;2023-07-20T05:05:00;9.70;;;6.00;;
30247;SDS011;17063;50.892;4.702;2023-07-20T05:07:27;15.33;;;6.43;;
30247;SDS011;17063;50.892;4.702;2023-07-20T05:09:55;15.17;;;6.83;;
30247;SDS011;17063;50.892;4.702;2023-07-20T05:12:22;11.23;;;6.30;;
30247;SDS011;17063;50.892;4.702;2023-07-20T05:14:49;13.27;;;6.93;;
30247;SDS011;17063;50.892;4.702;2023-07-20T05:17:16;10.40;;;6.33;;
30247;SDS011;17063;50.892;4.702;2023-07-20T05:19:43;13.23;;;7.07;;
30247;SDS011;17063;50.892;4.702;2023-07-20T05:22:10;16.73;;;7.83;;
30247;SDS011;17063;50.892;4.702;2023-07-20T05:24:38;14.27;;;6.67;;
30247;SDS011;17063;50.892;4.702;2023-07-20T05:27:05;19.90;;;8.33;;
30247;SDS011;17063;50.892;4.702;2023-07-20T05:29:32;11.33;;;6.50;;
30247;SDS011;17063;50.892;4.702;2023-07-20T05:31:59;11.33;;;6.47;;
30247;SDS011;17063;50.892;4.702;2023-07-20T05:34:26;12.23;;;7.10;;
30247;SDS011;17063;50.892;4.702;2023-07-20T05:36:54;9.93;;;6.53;;
30247;SDS011;17063;50.892;4.702;2023-07-20T05:39:21;10.83;;;6.50;;
30247;SDS011;17063;50.892;4.702;2023-07-20T05:41:49;14.63;;;7.60;;
30247;SDS011;17063;50.892;4.702;2023-07-20T05:44:16;10.13;;;6.27;;
30247;SDS011;17063;50.892;4.702;2023-07-20T05:46:43;12.80;;;6.50;;
30247;SDS011;17063;50.892;4.702;2023-07-20T05:49:22;11.07;;;7.03;;
30247;SDS011;17063;50.892;4.702;2023-07-20T05:51:50;10.30;;;6.50;;
30247;SDS011;17063;50.892;4.702;2023-07-20T05:54:17;11.57;;;6.80;;
30247;SDS011;17063;50.892;4.702;2023-07-20T05:56:45;14.93;;;7.03;;
30247;SDS011;17063;50.892;4.702;2023-07-20T05:59:13;13.03;;;6.20;;
30247;SDS011;17063;50.892;4.702;2023-07-20T06:01:41;10.13;;;6.00;;
30247;SDS011;17063;50.892;4.702;2023-07-20T06:04:08;11.13;;;6.20;;
30247;SDS011;17063;50.892;4.702;2023-07-20T06:06:35;9.50;;;6.00;;
30247;SDS011;17063;50.892;4.702;2023-07-20T06:09:02;9.60;;;5.83;;
30247;SDS011;17063;50.892;4.702;2023-07-20T06:11:34;9.87;;;5.57;;
30247;SDS011;17063;50.892;4.702;2023-07-20T06:14:00;11.53;;;6.60;;
30247;SDS011;17063;50.892;4.702;2023-07-20T06:16:27;12.77;;;6.33;;
30247;SDS011;17063;50.892;4.702;2023-07-20T06:18:55;12.10;;;6.33;;
30247;SDS011;17063;50.892;4.702;2023-07-20T06:21:22;8.07;;;5.90;;
30247;SDS011;17063;50.892;4.702;2023-07-20T06:23:49;9.97;;;6.47;;
30247;SDS011;17063;50.892;4.702;2023-07-20T06:26:16;9.93;;;5.93;;
30247;SDS011;17063;50.892;4.702;2023-07-20T06:28:42;8.40;;;6.63;;
30247;SDS011;17063;50.892;4.702;2023-07-20T06:31:09;10.50;;;5.97;;
30247;SDS011;17063;50.892;4.702;2023-07-20T06:33:36;11.97;;;6.43;;
30247;SDS011;17063;50.892;4.702;2023-07-20T06:36:03;10.57;;;6.17;;
30247;SDS011;17063;50.892;4.702;2023-07-20T06:38:30;11.70;;;7.30;;
30247;SDS011;17063;50.892;4.702;2023-07-20T06:40:58;9.20;;;6.03;;
30247;SDS011;17063;50.892;4.702;2023-07-20T06:43:45;12.20;;;6.40;;
30247;SDS011;17063;50.892;4.702;2023-07-20T06:46:15;11.73;;;6.77;;
30247;SDS011;17063;50.892;4.702;2023-07-20T06:48:41;14.57;;;6.80;;
30247;SDS011;17063;50.892;4.702;2023-07-20T06:51:14;13.20;;;6.87;;
30247;SDS011;17063;50.892;4.702;2023-07-20T06:53:41;11.97;;;6.53;;
30247;SDS011;17063;50.892;4.702;2023-07-20T06:56:08;11.57;;;7.23;;
30247;SDS011;17063;50.892;4.702;2023-07-20T06:58:34;12.00;;;8.23;;
30247;SDS011;17063;50.892;4.702;2023-07-20T07:01:05;13.50;;;7.80;;
30247;SDS011;17063;50.892;4.702;2023-07-20T07:03:33;12.90;;;8.40;;
30247;SDS011;17063;50.892;4.702;2023-07-20T07:06:00;14.80;;;9.03;;
30247;SDS011;17063;50.892;4.702;2023-07-20T07:08:27;11.90;;;8.03;;
30247;SDS011;17063;50.892;4.702;2023-07-20T07:10:54;12.60;;;8.20;;
30247;SDS011;17063;50.892;4.702;2023-07-20T07:13:21;11.87;;;7.63;;
30247;SDS011;17063;50.892;4.702;2023-07-20T07:15:50;10.33;;;7.50;;
30247;SDS011;17063;50.892;4.702;2023-07-20T07:18:17;12.00;;;7.87;;
30247;SDS011;17063;50.892;4.702;2023-07-20T07:20:53;11.57;;;7.40;;
30247;SDS011;17063;50.892;4.702;2023-07-20T07:23:20;10.80;;;7.97;;
30247;SDS011;17063;50.892;4.702;2023-07-20T07:25:47;14.00;;;7.43;;
30247;SDS011;17063;50.892;4.702;2023-07-20T07:28:14;12.57;;;8.40;;
30247;SDS011;17063;50.892;4.702;2023-07-20T07:30:42;13.33;;;8.60;;
30247;SDS011;17063;50.892;4.702;2023-07-20T07:33:08;14.13;;;8.50;;
30247;SDS011;17063;50.892;4.702;2023-07-20T07:35:36;14.50;;;8.20;;
30247;SDS011;17063;50.892;4.702;2023-07-20T07:38:03;16.27;;;8.60;;
30247;SDS011;17063;50.892;4.702;2023-07-20T07:40:50;10.73;;;6.67;;
30247;SDS011;17063;50.892;4.702;2023-07-20T07:43:17;8.70;;;5.63;;
30247;SDS011;17063;50.892;4.702;2023-07-20T07:45:44;9.67;;;7.03;;
30247;SDS011;17063;50.892;4.702;2023-07-20T07:48:10;8.83;;;6.83;;
30247;SDS011;17063;50.892;4.702;2023-07-20T07:50:39;9.63;;;6.63;;
30247;SDS011;17063;50.892;4.702;2023-07-20T07:53:09;7.97;;;5.83;;
30247;SDS011;17063;50.892;4.702;2023-07-20T07:55:37;8.87;;;7.00;;
30247;SDS011;17063;50.892;4.702;2023-07-20T07:58:04;8.63;;;6.00;;
30247;SDS011;17063;50.892;4.702;2023-07-20T08:00:31;7.50;;;4.90;;
30247;SDS011;17063;50.892;4.702;2023-07-20T08:02:58;7.77;;;5.73;;
30247;SDS011;17063;50.892;4.702;2023-07-20T08:05:25;8.13;;;6.30;;
30247;SDS011;17063;50.892;4.702;2023-07-20T08:07:52;9.07;;;6.60;;
30247;SDS011;17063;50.892;4.702;2023-07-20T08:10:19;7.57;;;5.93;;
30247;SDS011;17063;50.892;4.702;2023-07-20T08:12:46;6.53;;;5.70;;
30247;SDS011;17063;50.892;4.702;2023-07-20T08:15:13;7.13;;;4.67;;
30247;SDS011;17063;50.892;4.702;2023-07-20T08:17:41;10.60;;;4.87;;
30247;SDS011;17063;50.892;4.702;2023-07-20T08:20:12;7.00;;;5.07;;
30247;SDS011;17063;50.892;4.702;2023-07-20T08:22:39;5.93;;;4.80;;
30247;SDS011;17063;50.892;4.702;2023-07-20T08:25:06;5.30;;;3.90;;
30247;SDS011;17063;50.892;4.702;2023-07-20T08:27:34;5.13;;;4.33;;
30247;SDS011;17063;50.892;4.702;2023-07-20T08:30:02;6.73;;;5.23;;
30247;SDS011;17063;50.892;4.702;2023-07-20T08:32:29;7.30;;;4.30;;
30247;SDS011;17063;50.892;4.702;2023-07-20T08:34:56;7.80;;;4.57;;
30247;SDS011;17063;50.892;4.702;2023-07-20T08:37:23;6.57;;;4.57;;
30247;SDS011;17063;50.892;4.702;2023-07-20T08:39:50;6.90;;;4.80;;
30247;SDS011;17063;50.892;4.702;2023-07-20T08:42:17;5.80;;;3.70;;
30247;SDS011;17063;50.892;4.702;2023-07-20T08:44:44;5.03;;;4.53;;
30247;SDS011;17063;50.892;4.702;2023-07-20T08:47:12;4.27;;;3.10;;
30247;SDS011;17063;50.892;4.702;2023-07-20T08:49:40;4.30;;;3.20;;
30247;SDS011;17063;50.892;4.702;2023-07-20T08:52:07;4.37;;;3.00;;
30247;SDS011;17063;50.892;4.702;2023-07-20T08:54:34;3.87;;;2.60;;
30247;SDS011;17063;50.892;4.702;2023-07-20T08:57:03;3.33;;;2.73;;
30247;SDS011;17063;50.892;4.702;2023-07-20T08:59:31;4.43;;;2.80;;
30247;SDS011;17063;50.892;4.702;2023-07-20T09:01:59;2.40;;;2.30;;
30247;SDS011;17063;50.892;4.702;2023-07-20T09:04:26;6.30;;;2.50;;
30247;SDS011;17063;50.892;4.702;2023-07-20T09:06:54;4.80;;;2.70;;
30247;SDS011;17063;50.892;4.702;2023-07-20T09:09:21;3.07;;;2.50;;
30247;SDS011;17063;50.892;4.702;2023-07-20T09:11:49;4.87;;;2.40;;
30247;SDS011;17063;50.892;4.702;2023-07-20T09:14:17;3.47;;;2.20;;
30247;SDS011;17063;50.892;4.702;2023-07-20T09:16:47;3.13;;;2.00;;
30247;SDS011;17063;50.892;4.702;2023-07-20T09:19:20;3.30;;;2.03;;
30247;SDS011;17063;50.892;4.702;2023-07-20T09:21:51;3.93;;;2.17;;
30247;SDS011;17063;50.892;4.702;2023-07-20T09:24:29;2.33;;;2.03;;
30247;SDS011;17063;50.892;4.702;2023-07-20T09:26:57;4.07;;;1.90;;
30247;SDS011;17063;50.892;4.702;2023-07-20T09:29:24;3.13;;;2.30;;
30247;SDS011;17063;50.892;4.702;2023-07-20T09:34:28;2.30;;;2.10;;
30247;SDS011;17063;50.892;4.702;2023-07-20T09:37:01;1.80;;;1.50;;
30247;SDS011;17063;50.892;4.702;2023-07-20T09:39:29;2.73;;;1.60;;
30247;SDS011;17063;50.892;4.702;2023-07-20T09:41:59;2.40;;;1.30;;
30247;SDS011;17063;50.892;4.702;2023-07-20T09:44:31;1.47;;;1.37;;
30247;SDS011;17063;50.892;4.702;2023-07-20T09:47:02;2.60;;;1.30;;
30247;SDS011;17063;50.892;4.702;2023-07-20T09:49:31;1.30;;;1.20;;
30247;SDS011;17063;50.892;4.702;2023-07-20T09:52:18;1.37;;;1.30;;
30247;SDS011;17063;50.892;4.702;2023-07-20T09:55:06;1.40;;;1.33;;
30247;SDS011;17063;50.892;4.702;2023-07-20T09:57:39;1.53;;;1.40;;
30247;SDS011;17063;50.892;4.702;2023-07-20T10:00:07;2.10;;;1.50;;
30247;SDS011;17063;50.892;4.702;2023-07-20T10:02:42;2.47;;;1.27;;
30247;SDS011;17063;50.892;4.702;2023-07-20T10:05:14;2.27;;;1.27;;
30247;SDS011;17063;50.892;4.702;2023-07-20T10:07:48;3.73;;;1.13;;
30247;SDS011;17063;50.892;4.702;2023-07-20T10:10:36;3.67;;;1.40;;
30247;SDS011;17063;50.892;4.702;2023-07-20T10:13:07;2.53;;;1.50;;
30247;SDS011;17063;50.892;4.702;2023-07-20T10:15:37;1.73;;;1.63;;
30247;SDS011;17063;50.892;4.702;2023-07-20T10:18:14;1.40;;;1.30;;
30247;SDS011;17063;50.892;4.702;2023-07-20T10:20:45;2.50;;;1.30;;
30247;SDS011;17063;50.892;4.702;2023-07-20T10:23:15;1.43;;;1.10;;
30247;SDS011;17063;50.892;4.702;2023-07-20T10:25:45;3.00;;;1.30;;
30247;SDS011;17063;50.892;4.702;2023-07-20T10:28:13;3.00;;;1.13;;
30247;SDS011;17063;50.892;4.702;2023-07-20T10:30:40;1.30;;;1.20;;
30247;SDS011;17063;50.892;4.702;2023-07-20T10:33:08;1.63;;;1.20;;
30247;SDS011;17063;50.892;4.702;2023-07-20T10:35:56;1.87;;;1.30;;
30247;SDS011;17063;50.892;4.702;2023-07-20T10:41:19;2.27;;;0.87;;
30247;SDS011;17063;50.892;4.702;2023-07-20T10:43:51;3.13;;;0.77;;
30247;SDS011;17063;50.892;4.702;2023-07-20T10:49:08;2.93;;;0.87;;
30247;SDS011;17063;50.892;4.702;2023-07-20T10:51:40;0.80;;;0.80;;
30247;SDS011;17063;50.892;4.702;2023-07-20T10:56:44;0.70;;;0.70;;
30247;SDS011;17063;50.892;4.702;2023-07-20T11:01:57;1.40;;;1.00;;
30247;SDS011;17063;50.892;4.702;2023-07-20T11:04:42;1.00;;;1.00;;
30247;SDS011;17063;50.892;4.702;2023-07-20T11:07:10;0.83;;;0.83;;
30247;SDS011;17063;50.892;4.702;2023-07-20T11:09:47;1.57;;;0.83;;
30247;SDS011;17063;50.892;4.702;2023-07-20T11:12:16;3.03;;;0.80;;
30247;SDS011;17063;50.892;4.702;2023-07-20T11:14:55;3.37;;;1.23;;
30247;SDS011;17063;50.892;4.702;2023-07-20T11:17:33;0.90;;;0.70;;
30247;SDS011;17063;50.892;4.702;2023-07-20T11:20:02;2.33;;;1.10;;
30247;SDS011;17063;50.892;4.702;2023-07-20T11:22:33;1.10;;;1.10;;
30247;SDS011;17063;50.892;4.702;2023-07-20T11:25:01;2.63;;;1.00;;
30247;SDS011;17063;50.892;4.702;2023-07-20T11:27:38;2.60;;;0.70;;
30247;SDS011;17063;50.892;4.702;2023-07-20T11:30:17;1.60;;;1.00;;
30247;SDS011;17063;50.892;4.702;2023-07-20T11:32:47;1.40;;;0.90;;
30247;SDS011;17063;50.892;4.702;2023-07-20T11:35:15;3.40;;;0.70;;
30247;SDS011;17063;50.892;4.702;2023-07-20T11:37:42;1.70;;;1.10;;
30247;SDS011;17063;50.892;4.702;2023-07-20T11:40:09;1.37;;;1.10;;
30247;SDS011;17063;50.892;4.702;2023-07-20T11:42:36;2.03;;;1.00;;
30247;SDS011;17063;50.892;4.702;2023-07-20T11:45:06;3.33;;;0.90;;
30247;SDS011;17063;50.892;4.702;2023-07-20T11:47:34;1.93;;;0.70;;
30247;SDS011;17063;50.892;4.702;2023-07-20T11:50:04;0.90;;;0.90;;
30247;SDS011;17063;50.892;4.702;2023-07-20T11:52:31;1.07;;;0.90;;
30247;SDS011;17063;50.892;4.702;2023-07-20T11:54:59;2.37;;;1.13;;
30247;SDS011;17063;50.892;4.702;2023-07-20T11:57:26;1.27;;;0.83;;
30247;SDS011;17063;50.892;4.702;2023-07-20T11:59:53;2.57;;;0.80;;
30247;SDS011;17063;50.892;4.702;2023-07-20T12:02:29;1.53;;;1.00;;
30247;SDS011;17063;50.892;4.702;2023-07-20T12:04:57;3.23;;;1.00;;
30247;SDS011;17063;50.892;4.702;2023-07-20T12:07:28;1.03;;;1.03;;
30247;SDS011;17063;50.892;4.702;2023-07-20T12:10:28;1.23;;;0.80;;
30247;SDS011;17063;50.892;4.702;2023-07-20T12:13:05;7.30;;;1.10;;
30247;SDS011;17063;50.892;4.702;2023-07-20T12:15:39;4.57;;;1.10;;
30247;SDS011;17063;50.892;4.702;2023-07-20T12:18:10;2.33;;;1.03;;
30247;SDS011;17063;50.892;4.702;2023-07-20T12:20:37;1.43;;;0.70;;
30247;SDS011;17063;50.892;4.702;2023-07-20T12:23:10;3.13;;;1.00;;
30247;SDS011;17063;50.892;4.702;2023-07-20T12:25:41;1.57;;;1.00;;
30247;SDS011;17063;50.892;4.702;2023-07-20T12:28:27;0.80;;;0.80;;
30247;SDS011;17063;50.892;4.702;2023-07-20T12:30:58;1.40;;;1.00;;
30247;SDS011;17063;50.892;4.702;2023-07-20T12:33:26;2.70;;;0.97;;
30247;SDS011;17063;50.892;4.702;2023-07-20T12:35:55;1.77;;;0.80;;
30247;SDS011;17063;50.892;4.702;2023-07-20T12:38:25;0.70;;;0.70;;
30247;SDS011;17063;50.892;4.702;2023-07-20T12:40:54;1.07;;;0.97;;
30247;SDS011;17063;50.892;4.702;2023-07-20T12:46:17;1.80;;;1.07;;
30247;SDS011;17063;50.892;4.702;2023-07-20T12:48:44;0.70;;;0.70;;
30247;SDS011;17063;50.892;4.702;2023-07-20T12:51:15;2.50;;;1.20;;
30247;SDS011;17063;50.892;4.702;2023-07-20T12:53:43;1.00;;;1.00;;
30247;SDS011;17063;50.892;4.702;2023-07-20T12:56:10;1.30;;;0.90;;
30247;SDS011;17063;50.892;4.702;2023-07-20T12:58:41;2.20;;;0.90;;
30247;SDS011;17063;50.892;4.702;2023-07-20T13:01:12;2.07;;;0.90;;
30247;SDS011;17063;50.892;4.702;2023-07-20T13:03:40;2.00;;;1.00;;
30247;SDS011;17063;50.892;4.702;2023-07-20T13:06:21;2.10;;;0.90;;
30247;SDS011;17063;50.892;4.702;2023-07-20T13:08:51;1.73;;;0.87;;
30247;SDS011;17063;50.892;4.702;2023-07-20T13:11:22;1.40;;;1.00;;
30247;SDS011;17063;50.892;4.702;2023-07-20T13:13:50;1.87;;;1.00;;
30247;SDS011;17063;50.892;4.702;2023-07-20T13:16:16;2.93;;;1.07;;
30247;SDS011;17063;50.892;4.702;2023-07-20T13:18:44;0.87;;;0.87;;
30247;SDS011;17063;50.892;4.702;2023-07-20T13:21:12;2.37;;;0.90;;
30247;SDS011;17063;50.892;4.702;2023-07-20T13:23:39;0.73;;;0.73;;
30247;SDS011;17063;50.892;4.702;2023-07-20T13:26:06;1.43;;;1.00;;
30247;SDS011;17063;50.892;4.702;2023-07-20T13:28:35;1.30;;;0.80;;
30247;SDS011;17063;50.892;4.702;2023-07-20T13:31:08;1.37;;;0.90;;
30247;SDS011;17063;50.892;4.702;2023-07-20T13:33:40;2.00;;;1.00;;
30247;SDS011;17063;50.892;4.702;2023-07-20T13:36:21;1.00;;;0.90;;
30247;SDS011;17063;50.892;4.702;2023-07-20T13:38:51;0.70;;;0.70;;
30247;SDS011;17063;50.892;4.702;2023-07-20T13:41:36;2.43;;;1.20;;
30247;SDS011;17063;50.892;4.702;2023-07-20T13:44:10;1.00;;;1.00;;
30247;SDS011;17063;50.892;4.702;2023-07-20T13:46:47;1.20;;;1.10;;
30247;SDS011;17063;50.892;4.702;2023-07-20T13:49:15;1.80;;;1.27;;
30247;SDS011;17063;50.892;4.702;2023-07-20T13:51:49;1.30;;;1.20;;
30247;SDS011;17063;50.892;4.702;2023-07-20T13:54:36;2.10;;;1.30;;
30247;SDS011;17063;50.892;4.702;2023-07-20T13:57:12;1.33;;;1.23;;
30247;SDS011;17063;50.892;4.702;2023-07-20T13:59:44;1.60;;;1.10;;
30247;SDS011;17063;50.892;4.702;2023-07-20T14:02:13;2.07;;;1.20;;
30247;SDS011;17063;50.892;4.702;2023-07-20T14:04:44;2.50;;;1.40;;
30247;SDS011;17063;50.892;4.702;2023-07-20T14:07:11;1.80;;;0.80;;
30247;SDS011;17063;50.892;4.702;2023-07-20T14:09:42;0.90;;;0.90;;
30247;SDS011;17063;50.892;4.702;2023-07-20T14:12:12;1.53;;;1.00;;
30247;SDS011;17063;50.892;4.702;2023-07-20T14:14:43;3.13;;;0.97;;
30247;SDS011;17063;50.892;4.702;2023-07-20T14:17:12;0.90;;;0.90;;
30247;SDS011;17063;50.892;4.702;2023-07-20T14:19:39;1.40;;;0.93;;
30247;SDS011;17063;50.892;4.702;2023-07-20T14:22:09;2.43;;;0.93;;
30247;SDS011;17063;50.892;4.702;2023-07-20T14:24:45;1.47;;;0.90;;
30247;SDS011;17063;50.892;4.702;2023-07-20T14:27:12;1.30;;;1.10;;
30247;SDS011;17063;50.892;4.702;2023-07-20T14:29:39;1.50;;;0.87;;
30247;SDS011;17063;50.892;4.702;2023-07-20T14:32:07;1.70;;;0.70;;
30247;SDS011;17063;50.892;4.702;2023-07-20T14:34:34;1.33;;;0.80;;
30247;SDS011;17063;50.892;4.702;2023-07-20T14:37:04;1.13;;;1.03;;
30247;SDS011;17063;50.892;4.702;2023-07-20T14:39:32;1.53;;;1.00;;
30247;SDS011;17063;50.892;4.702;2023-07-20T14:41:59;0.80;;;0.80;;
30247;SDS011;17063;50.892;4.702;2023-07-20T14:44:26;2.00;;;0.90;;
30247;SDS011;17063;50.892;4.702;2023-07-20T14:46:53;2.07;;;0.93;;
30247;SDS011;17063;50.892;4.702;2023-07-20T14:49:38;5.40;;;1.90;;
30247;SDS011;17063;50.892;4.702;2023-07-20T14:52:05;3.30;;;1.10;;
30247;SDS011;17063;50.892;4.702;2023-07-20T14:54:41;1.67;;;0.73;;
30247;SDS011;17063;50.892;4.702;2023-07-20T14:57:08;1.30;;;0.90;;
30247;SDS011;17063;50.892;4.702;2023-07-20T14:59:41;3.20;;;0.90;;
30247;SDS011;17063;50.892;4.702;2023-07-20T15:02:08;1.37;;;1.10;;
30247;SDS011;17063;50.892;4.702;2023-07-20T15:04:35;0.80;;;0.80;;
30247;SDS011;17063;50.892;4.702;2023-07-20T15:07:02;1.70;;;1.20;;
30247;SDS011;17063;50.892;4.702;2023-07-20T15:09:30;3.57;;;1.00;;
30247;SDS011;17063;50.892;4.702;2023-07-20T15:11:57;1.07;;;1.03;;
30247;SDS011;17063;50.892;4.702;2023-07-20T15:14:24;1.77;;;1.27;;
30247;SDS011;17063;50.892;4.702;2023-07-20T15:16:51;1.27;;;0.90;;